Du har inga inställningar för hoppväder.nu

Hoppväder.nu

Senast uppdaterat 01:43

UTC-tid

2019-12-06 kl. 00:43


Sol och måne

Solen går upp 8:54 och går ner 14:34 (beräknade cirkatider)
Nästa fullmåne blir om 6 dagar (2019-12-12)


Väderstation: Skydive Mohed

Väderrapport från: 2019-11-03 kl 11:05:57
Vindriktning: 0°
Vinden har varierat mellan 0° och 0° de senaste 10 minuterna.
Vindstyrka: 0 m/s
Byvind: 0 m/s
Lufttryck: 1005,6 hPa
Temperatur: 4,7°C, känns som: 2,2°C
Daggpunkt: -4,1°C
Luftfuktighet: 53%
Molnbas: 1094 m




METAR

ESSD (Borlänge)
(23 minuter sedan)
ESSD 060020Z AUTO 22011KT 9999 OVC016/// 06/03 Q0986=



ESNN (Sundsvall-Härnösand)
(23 minuter sedan)
ESNN 060020Z AUTO 33004KT 9999 OVC100/// M02/M02 Q0983=












TAF

ESSD (Borlänge)
ESSD



ESNN (Sundsvall-Härnösand)
(253 minuter sedan)
ESNN 052030Z 0521/0523 23009KT CAVOK=





Kodnycklar till TAF och METAR






LHP

(Mohed är område D2b i Sydöstra delen)

Prognos är inte uppdaterad




Spotting

Hur fungerar spotthjälpen och Vindkartan?

Markvind är ca 0 m/s.



Vindkartan

Senast uppdaterad 01:43


All data kommer från LFV.se,
och från SÖFKs väderstation